Time;durP1;ratioP1;P1;durP2;ratioP2;P2;SDS_P1;SDS_P2;PMS_P1;PMS_P2;Temp;Humidity;BMP_temperature;BMP_pressure;BME280_temperature;BME280_humidity;BME280_pressure;Samples;Min_cycle;Max_cycle;Signal;HPM_P1;HPM_P2
2023/04/21 00:00:43;;;;;;;;;31.50;28.75;;;;;8.58;57.77;100894.94;5120043;27;45315;-56
2023/04/21 00:03:09;;;;;;;;;30.50;24.75;;;;;8.57;58.30;100886.13;5119486;27;46176;-57
2023/04/21 00:05:34;;;;;;;;;29.75;25.75;;;;;8.56;58.02;100878.31;5101202;27;45589;-57
2023/04/21 00:08:00;;;;;;;;;29.25;24.00;;;;;8.55;58.09;100885.41;5119769;27;45781;-56
2023/04/21 00:10:25;;;;;;;;;46.75;36.25;;;;;8.56;59.05;100886.28;5119986;27;45376;-56
2023/04/21 00:12:50;;;;;;;;;23.00;20.50;;;;;8.50;58.50;100877.00;5119152;27;52837;-56
2023/04/21 00:15:15;;;;;;;;;32.00;30.00;;;;;8.49;59.51;100880.63;5118215;27;45403;-58
2023/04/21 00:17:41;;;;;;;;;43.50;30.00;;;;;8.47;58.17;100877.28;5119645;27;45318;-57
2023/04/21 00:20:08;;;;;;;;;36.75;27.00;;;;;8.43;59.00;100875.88;5119654;27;45466;-56
2023/04/21 00:22:34;;;;;;;;;29.25;26.00;;;;;8.30;58.52;100859.25;5119689;27;46063;-56
2023/04/21 00:24:59;;;;;;;;;33.00;27.50;;;;;8.39;58.27;100872.63;5119403;27;45266;-57
2023/04/21 00:27:24;;;;;;;;;33.25;23.25;;;;;8.37;58.66;100865.78;5119389;27;45534;-57
2023/04/21 00:29:50;;;;;;;;;35.50;30.50;;;;;8.34;58.64;100861.53;5119654;27;45544;-56
2023/04/21 00:32:15;;;;;;;;;32.00;26.50;;;;;8.33;58.90;100862.50;5119280;27;46396;-56
2023/04/21 00:34:40;;;;;;;;;27.50;20.00;;;;;8.33;59.56;100854.53;5118948;27;49538;-56
2023/04/21 00:37:06;;;;;;;;;32.25;29.00;;;;;8.30;59.00;100862.78;5119220;27;45340;-58
2023/04/21 00:39:31;;;;;;;;;29.00;28.00;;;;;8.30;59.39;100860.13;5119515;27;45196;-57
2023/04/21 00:41:56;;;;;;;;;36.00;29.00;;;;;8.29;58.97;100850.47;5119163;27;46268;-56
2023/04/21 00:44:22;;;;;;;;;32.00;30.50;;;;;8.32;59.46;100846.72;5118861;27;45422;-57
2023/04/21 00:46:48;;;;;;;;;35.00;25.50;;;;;8.30;58.76;100840.72;5119566;27;45853;-58
2023/04/21 00:49:13;;;;;;;;;31.00;24.50;;;;;8.27;58.85;100843.63;5119373;27;45442;-57
2023/04/21 00:51:39;;;;;;;;;31.50;22.50;;;;;8.21;59.53;100843.16;5118211;27;46182;-57
2023/04/21 00:54:09;;;;;;;;;30.75;25.25;;;;;8.12;59.59;100819.25;5100471;27;45760;-57
2023/04/21 00:56:35;;;;;;;;;35.75;29.75;;;;;8.09;59.93;100822.16;5119199;27;45296;-57
2023/04/21 00:59:02;;;;;;;;;36.50;24.25;;;;;8.14;60.13;100827.94;5119135;27;45354;-57
2023/04/21 01:01:29;;;;;;;;;30.75;28.00;;;;;8.13;59.44;100832.41;5118759;27;47026;-56
2023/04/21 01:03:58;;;;;;;;;27.50;19.25;;;;;8.14;59.52;100831.41;5118665;27;45345;-57
2023/04/21 01:06:24;;;;;;;;;30.25;25.50;;;;;8.14;60.52;100831.41;5118784;27;45277;-57
2023/04/21 01:08:51;;;;;;;;;36.50;22.00;;;;;8.14;60.68;100825.28;5118987;27;45269;-57
2023/04/21 01:11:17;;;;;;;;;29.75;23.00;;;;;8.20;59.92;100832.69;5118501;27;46018;-58
2023/04/21 01:13:42;;;;;;;;;25.25;23.25;;;;;8.21;60.08;100829.06;5118034;27;45577;-57
2023/04/21 01:16:07;;;;;;;;;33.25;26.25;;;;;8.21;61.14;100818.47;5118902;27;45291;-57
2023/04/21 01:18:35;;;;;;;;;35.25;23.00;;;;;8.23;59.39;100817.38;5119113;27;45257;-56
2023/04/21 01:21:01;;;;;;;;;39.75;26.25;;;;;8.15;60.10;100793.34;5118432;27;46352;-57
2023/04/21 01:23:26;;;;;;;;;31.25;25.00;;;;;8.18;60.53;100805.50;5118340;27;45334;-56
2023/04/21 01:25:52;;;;;;;;;37.50;28.25;;;;;8.18;60.29;100800.22;5118890;27;45409;-57
2023/04/21 01:28:22;;;;;;;;;33.75;23.50;;;;;8.15;59.77;100797.81;5118533;27;45381;-56
2023/04/21 01:30:47;;;;;;;;;32.25;24.00;;;;;8.25;60.13;100806.66;5118621;27;46126;-57
2023/04/21 01:33:13;;;;;;;;;27.00;21.25;;;;;8.29;61.19;100804.59;5117516;27;45431;-56
2023/04/21 01:35:39;;;;;;;;;32.25;27.75;;;;;8.29;60.11;100809.88;5118540;27;46081;-57
2023/04/21 01:38:04;;;;;;;;;31.00;24.25;;;;;8.31;59.80;100810.59;5118722;27;45326;-56
2023/04/21 01:40:30;;;;;;;;;27.75;24.50;;;;;8.32;60.56;100809.63;5118115;27;47046;-56
2023/04/21 01:42:55;;;;;;;;;39.00;24.75;;;;;8.36;60.55;100805.75;5118159;27;45521;-57
2023/04/21 01:45:20;;;;;;;;;74.75;52.75;;;;;8.38;60.79;100806.47;5118324;27;45301;-58
2023/04/21 01:47:46;;;;;;;;;34.75;27.75;;;;;8.40;59.88;100799.25;5118501;27;45396;-57
2023/04/21 01:50:11;;;;;;;;;28.00;19.75;;;;;8.38;59.65;100794.06;5118268;27;45458;-57
2023/04/21 01:52:36;;;;;;;;;32.00;28.00;;;;;8.38;59.72;100785.28;5118275;27;45340;-58
2023/04/21 01:55:02;;;;;;;;;31.50;27.00;;;;;8.16;60.48;100747.31;5118404;27;45312;-58
2023/04/21 01:57:27;;;;;;;;;25.75;22.50;;;;;8.41;60.17;100783.19;5118532;27;45367;-56
2023/04/21 01:59:53;;;;;;;;;27.50;24.50;;;;;8.44;60.68;100782.09;5117807;27;46007;-58
2023/04/21 02:02:18;;;;;;;;;27.00;22.50;;;;;8.50;60.83;100787.72;5118107;27;45188;-57
2023/04/21 02:04:43;;;;;;;;;34.25;26.75;;;;;8.55;60.51;100789.13;5099753;27;45322;-57
2023/04/21 02:07:09;;;;;;;;;29.75;22.25;;;;;8.61;60.13;100786.78;5118239;27;45314;-56
2023/04/21 02:09:34;;;;;;;;;27.75;24.00;;;;;8.65;59.26;100779.41;5117919;27;46224;-57
2023/04/21 02:12:00;;;;;;;;;30.00;23.00;;;;;8.66;60.06;100781.91;5117890;27;45233;-56
2023/04/21 02:14:26;;;;;;;;;31.75;23.00;;;;;8.56;59.10;100754.53;5117821;27;45444;-55
2023/04/21 02:16:52;;;;;;;;;23.75;22.00;;;;;8.62;58.79;100764.59;5118207;27;45219;-58
2023/04/21 02:19:17;;;;;;;;;25.50;18.00;;;;;8.62;59.73;100775.19;5117659;27;46103;-56
2023/04/21 02:21:42;;;;;;;;;36.25;26.00;;;;;8.63;59.38;100760.13;5117912;27;45502;-55
2023/04/21 02:24:08;;;;;;;;;26.25;20.25;;;;;8.54;59.89;100747.69;5116702;27;45361;-56
2023/04/21 02:26:33;;;;;;;;;25.25;19.00;;;;;8.67;59.01;100766.84;5120762;27;45352;-56
2023/04/21 02:28:58;;;;;;;;;25.25;21.00;;;;;8.73;59.19;100768.97;5102704;27;46052;-56
2023/04/21 02:31:24;;;;;;;;;30.00;23.25;;;;;8.77;59.64;100777.50;5121270;27;45308;-55
2023/04/21 02:33:49;;;;;;;;;15.50;15.50;;;;;8.78;59.06;100776.53;5137266;27;45304;-56
2023/04/21 02:36:14;;;;;;;;;32.00;27.25;;;;;8.79;59.02;100767.59;5121477;27;45441;-56
2023/04/21 02:38:40;;;;;;;;;25.75;22.50;;;;;8.80;59.24;100766.63;5121185;27;46055;-57
2023/04/21 02:41:05;;;;;;;;;24.00;19.50;;;;;8.82;59.88;100764.69;5121118;27;45320;-56
2023/04/21 02:43:30;;;;;;;;;32.50;25.25;;;;;8.84;58.81;100770.66;5120848;27;45725;-57
2023/04/21 02:45:56;;;;;;;;;32.25;23.25;;;;;8.84;58.87;100768.03;5121321;27;45324;-56
2023/04/21 02:48:25;;;;;;;;;25.00;22.25;;;;;8.83;58.80;100766.34;5120881;27;47281;-56
2023/04/21 02:50:52;;;;;;;;;23.25;19.50;;;;;8.81;59.04;100755.88;5120998;27;45312;-56
2023/04/21 02:53:18;;;;;;;;;36.00;23.00;;;;;8.83;58.52;100761.03;5120772;27;45479;-56
2023/04/21 02:55:43;;;;;;;;;23.75;21.75;;;;;8.84;59.53;100758.25;5121010;27;45420;-57
2023/04/21 02:58:09;;;;;;;;;23.75;19.50;;;;;8.83;59.42;100756.56;5120661;27;47314;-57
2023/04/21 03:00:34;;;;;;;;;30.50;24.25;;;;;8.86;59.70;100751.00;5120690;27;45377;-57
2023/04/21 03:03:00;;;;;;;;;19.00;19.00;;;;;8.87;59.47;100752.69;5121112;27;45350;-56
2023/04/21 03:05:25;;;;;;;;;30.75;23.25;;;;;8.89;59.01;100750.75;5120838;27;45340;-57
2023/04/21 03:07:51;;;;;;;;;21.25;17.50;;;;;8.91;58.37;100748.78;5120784;27;46191;-57
2023/04/21 03:10:16;;;;;;;;;29.00;21.00;;;;;8.92;58.78;100753.09;5120621;27;45932;-56
2023/04/21 03:12:41;;;;;;;;;23.25;20.25;;;;;8.91;58.39;100743.47;5120859;27;45460;-56
2023/04/21 03:15:07;;;;;;;;;24.25;24.25;;;;;8.90;58.53;100746.28;5120583;27;45445;-58
2023/04/21 03:17:32;;;;;;;;;27.50;22.75;;;;;8.86;58.28;100739.56;5120555;27;45327;-57
2023/04/21 03:19:58;;;;;;;;;26.00;24.00;;;;;8.86;58.98;100740.41;5120647;27;45435;-57
2023/04/21 03:22:23;;;;;;;;;30.25;25.25;;;;;8.83;59.18;100737.16;5120571;27;45234;-57
2023/04/21 03:24:48;;;;;;;;;27.75;22.00;;;;;8.83;58.29;100734.53;5120854;27;45369;-56
2023/04/21 03:27:14;;;;;;;;;24.00;20.25;;;;;8.80;59.21;100732.97;5120189;27;48971;-58
2023/04/21 03:29:39;;;;;;;;;23.50;18.00;;;;;8.78;59.75;100726.13;5120237;27;45234;-56
2023/04/21 03:32:05;;;;;;;;;31.25;23.75;;;;;8.69;58.85;100712.72;5120699;27;45267;-57
2023/04/21 03:34:30;;;;;;;;;26.25;24.00;;;;;8.77;58.00;100725.31;5120556;27;45427;-56
2023/04/21 03:36:55;;;;;;;;;31.50;21.00;;;;;8.75;58.94;100735.19;5119610;27;49014;-57
2023/04/21 03:39:21;;;;;;;;;34.00;25.25;;;;;8.73;58.87;100729.19;5120253;27;45334;-55
2023/04/21 03:41:46;;;;;;;;;25.50;23.75;;;;;8.77;59.54;100735.91;5120302;27;45285;-57
2023/04/21 03:44:12;;;;;;;;;33.75;21.75;;;;;8.80;59.64;100732.97;5120126;27;45386;-56
2023/04/21 03:46:37;;;;;;;;;36.50;29.25;;;;;8.69;59.90;100712.72;5119870;27;46401;-57
2023/04/21 03:49:02;;;;;;;;;37.50;22.75;;;;;8.83;59.23;100727.41;5120198;27;45213;-57
2023/04/21 03:51:28;;;;;;;;;31.75;24.50;;;;;8.86;59.84;100723.66;5120399;27;45473;-57
2023/04/21 03:53:53;;;;;;;;;31.00;21.00;;;;;8.89;58.98;100720.69;5120014;27;45372;-57
2023/04/21 03:56:18;;;;;;;;;34.50;25.25;;;;;8.90;59.22;100722.41;5119949;27;51167;-57
2023/04/21 03:58:44;;;;;;;;;33.25;26.00;;;;;8.89;59.20;100718.91;5119905;27;47350;-56
2023/04/21 04:01:09;;;;;;;;;32.50;26.50;;;;;8.89;59.11;100720.69;5119085;27;45396;-57
2023/04/21 04:03:34;;;;;;;;;27.50;26.50;;;;;8.87;59.47;100712.88;5120189;27;45410;-56
2023/04/21 04:06:01;;;;;;;;;30.25;25.25;;;;;8.88;59.45;100711.06;5119612;27;46307;-57
2023/04/21 04:08:27;;;;;;;;;27.75;24.00;;;;;8.87;59.48;100712.06;5119813;27;45324;-56
2023/04/21 04:10:52;;;;;;;;;31.25;27.25;;;;;8.84;60.31;100699.88;5119795;27;45416;-57
2023/04/21 04:13:17;;;;;;;;;24.75;19.00;;;;;8.80;59.98;100687.88;5119879;27;45323;-56
2023/04/21 04:15:43;;;;;;;;;30.75;24.75;;;;;8.85;59.66;100698.94;5119470;27;46186;-57
2023/04/21 04:18:08;;;;;;;;;32.75;27.00;;;;;8.87;59.82;100706.75;5118991;27;45257;-59
2023/04/21 04:20:33;;;;;;;;;30.25;22.00;;;;;8.86;59.52;100700.59;5119872;27;45395;-58
2023/04/21 04:22:59;;;;;;;;;31.50;27.00;;;;;8.86;60.21;100697.13;5119853;27;45229;-56
2023/04/21 04:25:24;;;;;;;;;30.50;23.75;;;;;8.84;59.71;100705.19;5101116;27;46172;-57
2023/04/21 04:27:49;;;;;;;;;27.25;24.00;;;;;8.82;60.56;100707.16;5119645;27;45261;-57
2023/04/21 04:30:15;;;;;;;;;35.00;23.75;;;;;8.80;60.21;100700.31;5119367;27;45435;-56
2023/04/21 04:32:41;;;;;;;;;35.00;28.25;;;;;8.77;60.57;100708.56;5119695;27;45368;-57
2023/04/21 04:35:08;;;;;;;;;36.50;27.25;;;;;8.77;61.13;100696.13;5119165;27;46188;-57
2023/04/21 04:37:35;;;;;;;;;47.50;26.50;;;;;8.79;61.12;100709.25;5119282;27;45352;-56
2023/04/21 04:40:01;;;;;;;;;23.75;20.25;;;;;8.75;61.11;100704.19;5119425;27;45361;-55
2023/04/21 04:42:26;;;;;;;;;27.25;24.25;;;;;8.78;61.06;100710.22;5119278;27;45312;-56
2023/04/21 04:44:56;;;;;;;;;34.25;26.00;;;;;8.78;60.27;100708.41;5118864;27;46004;-56
2023/04/21 04:47:21;;;;;;;;;33.25;22.75;;;;;8.75;61.11;100706.00;5118529;27;45275;-55
2023/04/21 04:49:47;;;;;;;;;35.75;26.75;;;;;8.60;60.47;100689.66;5118625;27;45256;-56
2023/04/21 04:52:12;;;;;;;;;35.25;27.75;;;;;8.68;61.21;100705.75;5119327;27;45222;-56
2023/04/21 04:54:37;;;;;;;;;34.50;24.75;;;;;8.62;61.35;100706.25;5118682;27;47013;-56
2023/04/21 04:57:03;;;;;;;;;38.50;31.75;;;;;8.61;61.06;100706.41;5118950;27;45521;-55
2023/04/21 04:59:29;;;;;;;;;32.50;26.75;;;;;8.49;61.11;100695.06;5118907;27;45473;-55
2023/04/21 05:01:55;;;;;;;;;29.00;29.00;;;;;8.50;61.90;100702.03;5118376;27;45736;-56
2023/04/21 05:04:20;;;;;;;;;26.25;22.25;;;;;8.43;61.63;100704.41;5117977;27;46256;-54
2023/04/21 05:06:45;;;;;;;;;38.00;23.75;;;;;8.42;61.99;100701.84;5118748;27;45453;-55
2023/04/21 05:09:11;;;;;;;;;34.00;25.50;;;;;8.42;61.50;100702.69;5118888;27;45308;-54
2023/04/21 05:11:36;;;;;;;;;27.50;25.75;;;;;8.41;62.72;100700.19;5100365;27;45604;-56
2023/04/21 05:14:02;;;;;;;;;31.75;26.25;;;;;8.40;61.54;100701.16;5100000;27;46025;-56
2023/04/21 05:16:27;;;;;;;;;33.50;28.00;;;;;8.38;62.29;100701.28;5118431;27;45333;-56
2023/04/21 05:18:53;;;;;;;;;31.50;26.50;;;;;8.40;61.56;100706.47;5118765;27;45312;-57
2023/04/21 05:21:27;;;;;;;;;31.50;24.25;;;;;8.38;62.80;100698.63;5118786;27;45362;-56
2023/04/21 05:23:54;;;;;;;;;32.25;24.25;;;;;8.46;62.12;100697.97;5118580;27;46091;-57
2023/04/21 05:26:20;;;;;;;;;36.00;23.50;;;;;8.50;62.72;100700.22;5118359;27;45400;-56
2023/04/21 05:28:45;;;;;;;;;31.50;26.25;;;;;8.55;63.14;100704.28;5118604;27;45206;-57
2023/04/21 05:31:10;;;;;;;;;40.75;32.25;;;;;8.58;62.50;100690.75;5100223;27;45294;-55
2023/04/21 05:33:36;;;;;;;;;41.50;27.50;;;;;8.68;63.08;100700.44;5118088;27;49455;-56
2023/04/21 05:36:06;;;;;;;;;37.50;29.75;;;;;8.78;62.42;100699.63;5118559;27;45461;-56
2023/04/21 05:38:31;;;;;;;;;41.75;30.00;;;;;8.80;61.86;100697.66;5118327;27;45357;-56
2023/04/21 05:40:56;;;;;;;;;42.00;30.75;;;;;8.89;61.88;100702.13;5118243;27;45429;-57
2023/04/21 05:43:22;;;;;;;;;41.50;28.50;;;;;8.96;61.79;100703.28;5117860;27;49615;-57
2023/04/21 05:45:48;;;;;;;;;41.50;31.25;;;;;9.01;61.84;100701.03;5118139;27;45301;-56
2023/04/21 05:48:13;;;;;;;;;38.75;29.75;;;;;9.05;62.54;100702.44;5118384;27;45339;-56
2023/04/21 05:50:38;;;;;;;;;35.00;27.50;;;;;9.12;60.99;100705.41;5117517;27;45295;-55
2023/04/21 05:53:04;;;;;;;;;39.25;29.25;;;;;9.19;60.61;100696.75;5118118;27;46139;-57
2023/04/21 05:55:29;;;;;;;;;44.50;29.50;;;;;9.27;60.77;100705.81;5117959;27;45263;-57
2023/04/21 05:57:55;;;;;;;;;35.75;26.25;;;;;9.19;60.96;100703.88;5118015;27;45344;-58
2023/04/21 06:00:20;;;;;;;;;42.00;31.75;;;;;9.16;60.76;100706.78;5121246;27;45333;-58
2023/04/21 06:02:45;;;;;;;;;46.50;32.50;;;;;9.13;61.18;100693.78;5121646;27;47209;-57
2023/04/21 06:05:11;;;;;;;;;42.75;31.25;;;;;9.19;61.26;100704.72;5121651;27;49698;-57
2023/04/21 06:07:36;;;;;;;;;34.50;30.00;;;;;9.13;60.97;100699.94;5120427;27;45364;-57
2023/04/21 06:10:02;;;;;;;;;38.50;28.75;;;;;9.15;61.24;100698.00;5121976;27;45286;-58
2023/04/21 06:12:28;;;;;;;;;37.50;32.25;;;;;9.15;60.83;100698.00;5121677;27;47223;-57
2023/04/21 06:14:56;;;;;;;;;40.50;31.00;;;;;9.24;60.52;100693.66;5121459;27;45460;-57
2023/04/21 06:17:22;;;;;;;;;37.75;33.00;;;;;9.44;60.82;100698.00;5121575;27;45454;-55
2023/04/21 06:19:51;;;;;;;;;38.00;32.50;;;;;9.53;60.57;100688.34;5121844;27;45507;-57
2023/04/21 06:22:20;;;;;;;;;39.00;34.25;;;;;9.59;60.14;100700.22;5121211;27;47089;-57
2023/04/21 06:24:46;;;;;;;;;38.25;29.25;;;;;9.56;59.96;100703.16;5121457;27;45328;-56
2023/04/21 06:27:11;;;;;;;;;40.75;34.75;;;;;9.45;60.06;100696.19;5121216;27;45483;-57
2023/04/21 06:29:37;;;;;;;;;45.75;33.00;;;;;9.43;59.90;100704.28;5121714;27;45347;-57
2023/04/21 06:32:02;;;;;;;;;37.00;30.00;;;;;9.36;60.30;100686.41;5121177;27;46843;-57
2023/04/21 06:34:28;;;;;;;;;42.75;36.75;;;;;9.56;60.12;100697.84;5136960;27;45407;-56
2023/04/21 06:36:54;;;;;;;;;38.25;30.50;;;;;9.73;59.81;100697.13;5121405;27;45324;-56
2023/04/21 06:39:19;;;;;;;;;43.25;33.50;;;;;9.87;59.84;100702.00;5121539;27;45360;-55
2023/04/21 06:41:44;;;;;;;;;46.75;36.00;;;;;10.05;59.04;100699.44;5121154;27;45543;-58
2023/04/21 06:44:12;;;;;;;;;44.50;36.00;;;;;10.16;58.98;100698.44;5120888;27;45316;-55
2023/04/21 06:46:41;;;;;;;;;40.75;33.25;;;;;10.16;58.82;100693.94;5121011;27;45384;-55
2023/04/21 06:49:07;;;;;;;;;40.25;31.75;;;;;10.08;58.81;100691.19;5121060;27;45374;-57
2023/04/21 06:51:32;;;;;;;;;37.75;31.50;;;;;10.03;59.30;100693.44;5120896;27;46260;-57
2023/04/21 06:53:58;;;;;;;;;47.75;36.75;;;;;10.03;58.97;100688.13;5120714;27;45447;-56
2023/04/21 06:56:26;;;;;;;;;69.75;49.75;;;;;10.07;58.84;100691.31;5120253;27;45404;-55
2023/04/21 06:58:51;;;;;;;;;63.75;46.00;;;;;10.13;58.99;100691.56;5121116;27;45298;-59
2023/04/21 07:01:16;;;;;;;;;38.25;33.25;;;;;10.20;58.46;100684.69;5120400;27;46134;-56
2023/04/21 07:03:42;;;;;;;;;38.25;32.75;;;;;10.48;57.98;100693.56;5101294;27;45454;-56
2023/04/21 07:06:07;;;;;;;;;40.25;29.25;;;;;10.84;57.02;100672.38;5099807;27;45398;-56
2023/04/21 07:08:32;;;;;;;;;39.25;29.25;;;;;11.30;56.25;100677.63;5097658;27;45793;-55
2023/04/21 07:10:58;;;;;;;;;42.25;32.25;;;;;11.55;55.65;100676.84;5077168;27;47186;-56
2023/04/21 07:13:23;;;;;;;;;37.00;28.00;;;;;12.61;53.59;100676.66;5096076;27;45489;-57
2023/04/21 07:15:48;;;;;;;;;37.50;33.25;;;;;13.54;51.64;100671.97;5096934;27;45628;-56
2023/04/21 07:18:14;;;;;;;;;46.25;30.25;;;;;14.19;49.69;100655.81;5097007;27;45951;-56
2023/04/21 07:20:39;;;;;;;;;32.00;27.00;;;;;15.06;47.79;100658.41;5096830;27;46289;-56
2023/04/21 07:23:05;;;;;;;;;36.00;30.00;;;;;16.35;45.53;100654.72;5096758;27;45488;-58
2023/04/21 07:25:30;;;;;;;;;36.33;29.67;;;;;16.58;44.72;100653.75;5096899;27;45496;-56
2023/04/21 07:27:55;;;;;;;;;34.00;27.67;;;;;15.66;45.75;100656.78;5096858;27;45523;-57
2023/04/21 07:30:21;;;;;;;;;30.67;26.00;;;;;15.69;45.32;100651.91;5096692;27;46149;-56
2023/04/21 07:32:46;;;;;;;;;29.33;23.00;;;;;15.15;45.55;100653.84;5095982;27;45480;-57
2023/04/21 07:35:11;;;;;;;;;31.33;20.67;;;;;14.42;46.50;100655.06;5096390;27;45298;-56
2023/04/21 07:37:38;;;;;;;;;22.67;19.67;;;;;13.86;47.63;100664.91;5096725;27;45503;-57
2023/04/21 07:40:04;;;;;;;;;27.67;22.33;;;;;13.54;48.73;100655.13;5078206;27;46715;-56
2023/04/21 07:42:30;;;;;;;;;24.33;20.00;;;;;14.07;47.10;100654.50;5095413;27;45491;-57
2023/04/21 07:44:56;;;;;;;;;25.00;24.00;;;;;13.80;47.59;100668.28;5096349;27;45606;-57
2023/04/21 07:47:21;;;;;;;;;26.33;22.00;;;;;14.87;46.00;100648.97;5096283;27;45501;-57
2023/04/21 07:49:47;;;;;;;;;20.67;20.00;;;;;15.93;44.66;100655.38;5096298;27;45435;-58
2023/04/21 07:52:12;;;;;;;;;25.33;20.00;;;;;16.73;43.38;100643.84;5096086;27;45408;-58
2023/04/21 07:54:37;;;;;;;;;24.67;18.00;;;;;17.33;41.59;100645.28;5094018;27;45534;-57
2023/04/21 07:57:03;;;;;;;;;21.33;19.67;;;;;17.91;40.60;100640.59;5095882;27;45484;-57
2023/04/21 07:59:28;;;;;;;;;25.00;23.33;;;;;18.52;40.68;100642.56;5095575;27;45696;-56
2023/04/21 08:01:53;;;;;;;;;21.67;19.00;;;;;18.74;39.05;100645.16;5095726;27;45784;-57
2023/04/21 08:04:19;;;;;;;;;25.00;18.33;;;;;18.39;40.45;100645.19;5095910;27;45412;-57
2023/04/21 08:06:44;;;;;;;;;18.33;15.67;;;;;18.44;38.54;100616.63;5095103;27;46472;-57
2023/04/21 08:09:10;;;;;;;;;16.00;14.33;;;;;18.74;38.50;100637.88;5095234;27;46447;-56
2023/04/21 08:11:35;;;;;;;;;19.33;14.00;;;;;19.02;36.69;100639.63;5095632;27;45404;-57
2023/04/21 08:14:01;;;;;;;;;43.67;34.33;;;;;19.04;37.05;100637.53;5095599;27;45383;-58
2023/04/21 08:16:26;;;;;;;;;21.67;16.33;;;;;18.93;37.31;100633.59;5095942;27;45800;-56
2023/04/21 08:18:51;;;;;;;;;21.00;19.67;;;;;18.60;38.57;100638.88;5095617;27;46075;-56
2023/04/21 08:21:17;;;;;;;;;20.00;16.67;;;;;18.49;37.21;100636.72;5095842;27;45480;-56
2023/04/21 08:23:42;;;;;;;;;21.67;17.33;;;;;18.34;37.95;100636.91;5094099;27;45532;-57
2023/04/21 08:26:08;;;;;;;;;20.67;17.67;;;;;17.83;37.79;100642.59;5096255;27;45987;-56
2023/04/21 08:28:33;;;;;;;;;24.00;17.00;;;;;17.70;37.98;100641.44;5095191;27;47369;-59
2023/04/21 08:31:00;;;;;;;;;17.67;17.67;;;;;20.05;35.79;100637.34;5095090;27;45496;-58
2023/04/21 08:33:26;;;;;;;;;21.33;18.00;;;;;20.19;34.05;100629.00;5092705;27;46250;-57
2023/04/21 08:35:51;;;;;;;;;27.00;20.00;;;;;21.72;34.97;100630.81;5095321;27;45520;-57
2023/04/21 08:38:17;;;;;;;;;19.33;18.67;;;;;22.75;31.52;100632.75;5095289;27;46156;-58
2023/04/21 08:40:42;;;;;;;;;18.00;17.33;;;;;23.93;29.21;100627.59;5095537;27;45412;-56
2023/04/21 08:43:08;;;;;;;;;25.33;21.33;;;;;22.84;29.98;100630.59;5095143;27;45716;-56
2023/04/21 08:45:34;;;;;;;;;22.00;17.33;;;;;23.03;31.75;100639.50;5095333;27;45591;-57
2023/04/21 08:48:01;;;;;;;;;23.33;22.00;;;;;23.57;29.29;100626.75;5094692;27;47006;-55
2023/04/21 08:50:28;;;;;;;;;22.67;19.33;;;;;22.18;31.58;100632.25;5093047;27;45397;-57
2023/04/21 08:52:54;;;;;;;;;24.00;20.00;;;;;20.96;32.22;100631.78;5095415;27;45322;-54
2023/04/21 08:55:25;;;;;;;;;27.67;21.00;;;;;20.53;33.94;100635.16;5094574;27;45628;-57
2023/04/21 08:57:50;;;;;;;;;25.00;21.67;;;;;21.08;32.88;100638.16;5091678;27;46342;-55
2023/04/21 09:00:16;;;;;;;;;22.67;19.67;;;;;21.62;32.68;100635.91;5094862;27;45372;-55
2023/04/21 09:02:58;;;;;;;;;21.67;19.67;;;;;21.47;32.31;100630.00;5095091;27;45527;-56
2023/04/21 09:05:28;;;;;;;;;28.67;22.00;;;;;21.33;31.93;100629.28;5095430;27;45333;-55
2023/04/21 09:08:13;;;;;;;;;25.67;20.33;;;;;20.64;32.55;100634.44;5094641;27;45533;-55
2023/04/21 09:10:48;;;;;;;;;21.00;21.00;;;;;19.94;33.75;100626.16;5094716;27;45515;-57
2023/04/21 09:13:14;;;;;;;;;27.00;20.00;;;;;19.16;34.69;100612.47;5092963;27;45515;-57
2023/04/21 09:15:41;;;;;;;;;21.33;19.00;;;;;18.67;35.34;100637.84;5095032;27;45355;-57
2023/04/21 09:18:13;;;;;;;;;21.67;20.67;;;;;18.25;35.87;100641.63;5094003;27;45402;-57
2023/04/21 09:20:39;;;;;;;;;23.67;19.67;;;;;19.12;34.00;100621.19;5094365;27;45930;-57
2023/04/21 09:23:05;;;;;;;;;24.00;20.00;;;;;18.48;35.39;100630.53;5094823;27;45303;-55
2023/04/21 09:25:32;;;;;;;;;25.33;20.33;;;;;18.00;36.63;100635.06;5094686;27;45468;-57
2023/04/21 09:27:59;;;;;;;;;28.00;21.67;;;;;17.56;37.45;100642.34;5094237;27;47470;-57
2023/04/21 09:30:25;;;;;;;;;18.33;16.67;;;;;16.95;38.26;100636.66;5094683;27;45522;-56
2023/04/21 09:32:55;;;;;;;;;19.33;19.00;;;;;16.32;38.95;100641.66;5094622;27;45487;-57
2023/04/21 09:35:20;;;;;;;;;22.33;17.00;;;;;16.00;39.61;100636.66;5094464;27;45427;-57
2023/04/21 09:37:46;;;;;;;;;25.00;23.67;;;;;15.68;40.05;100642.19;5094592;27;46237;-56
2023/04/21 09:40:13;;;;;;;;;21.67;19.00;;;;;15.44;40.91;100639.69;5094462;27;45425;-57
2023/04/21 09:42:40;;;;;;;;;25.00;19.00;;;;;15.26;41.20;100636.50;5094429;27;45796;-55
2023/04/21 09:45:10;;;;;;;;;24.67;21.00;;;;;15.11;41.64;100613.16;5094453;27;45482;-56
2023/04/21 09:47:40;;;;;;;;;21.33;19.67;;;;;15.23;41.02;100641.22;5094080;27;46039;-56
2023/04/21 09:50:08;;;;;;;;;21.00;19.00;;;;;15.35;40.78;100635.44;5094251;27;45444;-56
2023/04/21 09:52:36;;;;;;;;;21.67;19.33;;;;;15.29;41.18;100639.66;5094161;27;45523;-58
2023/04/21 09:55:06;;;;;;;;;22.67;18.00;;;;;15.03;41.53;100626.63;5094147;27;45497;-55
2023/04/21 09:57:36;;;;;;;;;22.33;17.67;;;;;14.87;41.77;100634.75;5093878;27;46365;-56
2023/04/21 10:00:07;;;;;;;;;23.67;18.33;;;;;14.54;41.47;100634.97;5093630;27;45520;-57
2023/04/21 10:02:35;;;;;;;;;23.67;21.33;;;;;14.40;42.29;100635.66;5093754;27;45516;-55
2023/04/21 10:05:05;;;;;;;;;26.33;23.33;;;;;14.19;42.44;100618.34;5094112;27;45439;-59
2023/04/21 10:07:30;;;;;;;;;26.33;19.33;;;;;14.16;42.91;100626.75;5093793;27;45583;-55
2023/04/21 10:09:57;;;;;;;;;25.67;19.67;;;;;14.06;43.28;100612.72;5091427;27;45397;-56
2023/04/21 10:12:25;;;;;;;;;25.00;20.00;;;;;14.18;43.31;100626.56;5094298;27;45448;-55
2023/04/21 10:14:52;;;;;;;;;24.00;20.00;;;;;14.10;42.67;100623.91;5093831;27;45835;-56
2023/04/21 10:17:19;;;;;;;;;24.67;17.00;;;;;14.08;43.06;100631.28;5093502;27;47235;-55
2023/04/21 10:19:51;;;;;;;;;17.33;14.67;;;;;14.13;42.91;100632.44;5093749;27;45566;-55
2023/04/21 10:22:30;;;;;;;;;24.33;19.33;;;;;14.29;42.54;100636.06;5093536;27;46493;-55
2023/04/21 10:24:57;;;;;;;;;19.67;17.67;;;;;14.55;42.21;100625.94;5093613;27;45504;-56
2023/04/21 10:27:38;;;;;;;;;28.67;22.00;;;;;14.89;41.62;100604.13;5094224;27;46155;-57
2023/04/21 10:30:21;;;;;;;;;23.00;20.00;;;;;15.57;40.33;100613.09;5097195;27;45274;-56
2023/04/21 10:32:47;;;;;;;;;21.67;20.00;;;;;15.32;40.34;100619.69;5097157;27;45318;-57
2023/04/21 10:35:22;;;;;;;;;21.00;16.33;;;;;15.06;40.87;100609.38;5097021;27;45562;-56
2023/04/21 10:37:49;;;;;;;;;17.67;17.67;;;;;14.93;41.42;100615.31;5096763;27;46629;-57
2023/04/21 10:40:29;;;;;;;;;22.67;20.67;;;;;14.84;41.82;100605.69;5096894;27;45510;-57
2023/04/21 10:42:55;;;;;;;;;15.00;10.33;;;;;14.84;41.63;100611.88;5096665;27;45226;-57
2023/04/21 10:45:24;;;;;;;;;20.33;20.00;;;;;14.75;41.88;100594.19;5097305;27;45333;-56
2023/04/21 10:47:52;;;;;;;;;15.00;14.00;;;;;14.75;41.85;100607.59;5100323;27;46184;-57
2023/04/21 10:50:22;;;;;;;;;19.33;17.00;;;;;14.70;41.66;100601.91;5101065;27;45534;-56
2023/04/21 10:53:05;;;;;;;;;18.33;18.33;;;;;14.68;41.88;100595.91;5082662;27;45458;-57
2023/04/21 10:55:30;;;;;;;;;14.00;14.00;;;;;14.94;41.88;100596.38;5101006;27;45250;-58
2023/04/21 10:58:00;;;;;;;;;17.33;16.00;;;;;16.31;40.32;100572.06;5100448;27;46423;-58
2023/04/21 11:00:25;;;;;;;;;22.00;18.00;;;;;16.47;39.10;100590.63;5099903;27;45446;-56
2023/04/21 11:02:58;;;;;;;;;23.33;18.67;;;;;16.11;39.12;100588.75;5099987;27;45872;-56
2023/04/21 11:05:35;;;;;;;;;21.00;17.67;;;;;15.83;39.69;100587.72;5100170;27;45552;-56
2023/04/21 11:08:13;;;;;;;;;25.00;20.33;;;;;15.66;39.23;100585.22;5099934;27;45440;-58
2023/04/21 11:10:52;;;;;;;;;24.33;19.33;;;;;15.47;39.97;100583.88;5099988;27;45437;-57